aviador You're here:

WAAA Decoded Metar

UJUNG PANDANG in INDONESIA
Report Time2018-05-26 08:00:00
UTC Time2018-05-26 08:18:44
Flight Rules vfr VFR
Wind320° at 07 kt
W.Decomp.*RWY 31: 6.9 kt HW 1.0 kt RCW
RWY 03: 2.2 kt HW 6.7 kt LCW
W.Rank320° ranks 13
Current wind is above 320° avg. (6.1)
Visibility9999 m
Phenomena:N/A
Clouds:Scattered 019 Hf
Expected CloudBase > 1,600 ft AGL from Temp-Dew spread
CeilingNone
Temp29°C (ISA +14)
Dew Point25°C (79% RH)
Heat Index34.5°C
QNH1007 hPa
Density Alt2,280 ft
Elevation46 ft
Report Wrong Elevation
Raw Report
WAAA 260800Z 32007KT 290V010 9999 SCT019 29/25 Q1007 NOSIG=

Extra information for WAAA:More info

Metar Taf Metar & Taf Last 4 Metars F.Rules Stats Wind Profile Meteogram Temp Stats Airport Information Weather charts Add Link Nearby VenuesMetar ALERT Operation Metar Decoded Social comments